Time;durP1;ratioP1;P1;durP2;ratioP2;P2;SDS_P1;SDS_P2;PMS_P1;PMS_P2;Temp;Humidity;BMP_temperature;BMP_pressure;BME280_temperature;BME280_humidity;BME280_pressure;Samples;Min_cycle;Max_cycle;Signal;HPM_P1;HPM_P2
2022/07/08 00:01:23;;;;;;;;;5.33;4.00;;;;;19.98;46.85;102573.06;5013772;28;45390;-67
2022/07/08 00:03:48;;;;;;;;;3.00;3.00;;;;;19.82;47.19;102536.63;5014084;28;45406;-67
2022/07/08 00:06:14;;;;;;;;;3.33;3.00;;;;;19.51;47.26;102489.94;5029099;28;46057;-66
2022/07/08 00:08:39;;;;;;;;;3.33;3.00;;;;;19.77;47.22;102546.47;5013736;28;45485;-68
2022/07/08 00:11:04;;;;;;;;;3.67;3.67;;;;;19.82;47.34;102562.84;5014307;28;45559;-67
2022/07/08 00:13:30;;;;;;;;;6.00;3.00;;;;;19.75;47.34;102558.13;5013857;28;45446;-68
2022/07/08 00:15:55;;;;;;;;;2.00;1.67;;;;;19.77;47.30;102554.63;5013362;28;45965;-65
2022/07/08 00:18:20;;;;;;;;;2.67;2.67;;;;;19.71;47.62;102549.03;5013391;28;45285;-64
2022/07/08 00:20:46;;;;;;;;;3.00;3.00;;;;;19.78;47.42;102566.38;5013619;28;45823;-64
2022/07/08 00:23:11;;;;;;;;;6.67;5.33;;;;;19.79;47.42;102579.97;5013848;28;45537;-67
2022/07/08 00:25:36;;;;;;;;;5.00;3.67;;;;;19.69;47.64;102556.25;5013307;28;46179;-65
2022/07/08 00:28:02;;;;;;;;;3.67;3.00;;;;;19.47;47.59;102530.56;5013390;28;45567;-69
2022/07/08 00:30:27;;;;;;;;;2.67;2.33;;;;;19.62;47.84;102568.78;5017191;28;45318;-63
2022/07/08 00:32:53;;;;;;;;;3.00;3.00;;;;;19.52;47.82;102551.44;5017170;28;45326;-64
2022/07/08 00:35:18;;;;;;;;;6.33;4.33;;;;;19.67;48.13;102571.59;5016423;28;55729;-64
2022/07/08 00:37:43;;;;;;;;;6.33;4.67;;;;;19.66;47.82;102564.31;5016925;28;45493;-69
2022/07/08 00:40:11;;;;;;;;;3.33;3.33;;;;;19.40;48.00;102526.84;5016919;28;45300;-66
2022/07/08 00:42:37;;;;;;;;;5.00;2.00;;;;;19.59;47.98;102555.16;5017209;28;45430;-67
2022/07/08 00:45:02;;;;;;;;;7.00;2.67;;;;;19.57;48.10;102553.31;5016346;28;45751;-64
2022/07/08 00:47:28;;;;;;;;;8.33;5.33;;;;;19.17;48.11;102488.44;5016599;28;45344;-68
2022/07/08 00:49:53;;;;;;;;;8.33;7.33;;;;;19.48;47.85;102548.63;5016604;28;45591;-65
2022/07/08 00:52:19;;;;;;;;;3.00;3.00;;;;;19.40;48.01;102545.81;5016821;28;45434;-69
2022/07/08 00:54:45;;;;;;;;;6.00;3.33;;;;;19.48;48.22;102568.50;5016333;28;46192;-63
2022/07/08 00:57:12;;;;;;;;;5.67;3.00;;;;;19.29;48.10;102542.88;5016648;28;45748;-66
2022/07/08 00:59:38;;;;;;;;;6.00;3.00;;;;;19.46;48.19;102573.00;5016658;28;45567;-65
2022/07/08 01:02:03;;;;;;;;;3.00;3.00;;;;;19.11;48.21;102524.47;5016582;28;45553;-67
2022/07/08 01:04:30;;;;;;;;;3.67;2.67;;;;;19.21;48.10;102559.88;5016258;28;46094;-64
2022/07/08 01:06:56;;;;;;;;;4.33;2.67;;;;;19.24;48.01;102589.75;5016282;28;45517;-67
2022/07/08 01:09:21;;;;;;;;;9.33;7.00;;;;;19.29;48.38;102590.75;5016572;28;45439;-66
2022/07/08 01:11:47;;;;;;;;;4.67;2.00;;;;;19.23;48.54;102596.03;5016812;28;45598;-65
2022/07/08 01:14:14;;;;;;;;;4.33;3.00;;;;;19.07;48.46;102557.81;5016433;28;46084;-69
2022/07/08 01:16:39;;;;;;;;;5.00;1.33;;;;;19.21;48.41;102589.69;5016329;28;45502;-69
2022/07/08 01:19:04;;;;;;;;;2.00;2.00;;;;;18.83;48.64;102541.03;5016406;28;45748;-66
2022/07/08 01:21:30;;;;;;;;;1.67;1.33;;;;;19.05;48.61;102569.47;5016601;28;45326;-67
2022/07/08 01:23:55;;;;;;;;;2.33;2.00;;;;;19.05;48.58;102586.63;5016284;28;45973;-69
2022/07/08 01:26:21;;;;;;;;;5.00;4.00;;;;;19.08;48.61;102596.66;5016529;28;45623;-65
2022/07/08 01:28:46;;;;;;;;;4.00;2.00;;;;;19.13;49.04;102605.78;5016818;28;45549;-69
2022/07/08 01:31:12;;;;;;;;;3.00;2.00;;;;;18.82;48.99;102585.22;5016622;28;45208;-65
2022/07/08 01:33:37;;;;;;;;;5.33;4.00;;;;;18.92;49.21;102604.47;5015931;28;46257;-67
2022/07/08 01:36:04;;;;;;;;;2.00;2.00;;;;;18.91;49.25;102620.69;5015933;28;45427;-64
2022/07/08 01:38:29;;;;;;;;;5.67;5.00;;;;;18.79;49.25;102605.00;5016069;28;45328;-67
2022/07/08 01:40:54;;;;;;;;;2.67;1.00;;;;;18.79;49.64;102605.94;5019534;28;45403;-67
2022/07/08 01:43:20;;;;;;;;;4.00;2.33;;;;;18.73;49.60;102585.94;5015794;28;45467;-67
2022/07/08 01:45:46;;;;;;;;;3.33;3.33;;;;;18.70;49.36;102588.56;5016389;28;45629;-67
2022/07/08 01:48:11;;;;;;;;;3.00;2.00;;;;;18.79;49.40;102621.25;5015955;28;45474;-67
2022/07/08 01:50:37;;;;;;;;;3.00;2.00;;;;;18.78;49.70;102625.75;5016341;28;45393;-64
2022/07/08 01:53:02;;;;;;;;;2.00;2.00;;;;;18.65;49.62;102603.81;5015735;28;45479;-64
2022/07/08 01:55:28;;;;;;;;;4.33;1.67;;;;;18.72;49.62;102625.63;5015856;28;45588;-63
2022/07/08 01:57:53;;;;;;;;;4.33;2.33;;;;;18.71;49.67;102628.28;5016158;28;45466;-63
2022/07/08 02:00:18;;;;;;;;;4.67;1.33;;;;;18.56;49.68;102590.94;5016295;28;45305;-70
2022/07/08 02:02:44;;;;;;;;;2.33;1.67;;;;;18.69;49.78;102612.03;5016088;28;46217;-65
2022/07/08 02:05:11;;;;;;;;;5.67;3.00;;;;;18.70;49.47;102616.56;5015884;28;45668;-69
2022/07/08 02:07:38;;;;;;;;;1.00;1.00;;;;;18.60;49.78;102599.19;5015578;28;47511;-69
2022/07/08 02:10:04;;;;;;;;;2.00;2.00;;;;;18.50;49.52;102580.00;5015832;28;45307;-67
2022/07/08 02:12:30;;;;;;;;;3.33;2.00;;;;;18.65;49.73;102614.63;5015379;28;46353;-68
2022/07/08 02:15:01;;;;;;;;;4.67;2.00;;;;;18.63;49.72;102619.06;5015429;28;45491;-68
2022/07/08 02:17:28;;;;;;;;;3.00;1.00;;;;;18.61;49.61;102624.47;5015462;28;45264;-66
2022/07/08 02:19:53;;;;;;;;;3.00;2.00;;;;;18.55;49.70;102625.25;5015866;28;45482;-65
2022/07/08 02:22:19;;;;;;;;;2.67;2.00;;;;;18.38;50.04;102603.19;5015200;28;51750;-67
2022/07/08 02:24:44;;;;;;;;;2.33;1.33;;;;;18.50;50.28;102624.22;5015187;28;45358;-65
2022/07/08 02:27:10;;;;;;;;;3.33;1.00;;;;;18.38;50.17;102605.91;5015377;28;45360;-68
2022/07/08 02:29:35;;;;;;;;;3.00;3.00;;;;;18.28;50.16;102589.38;5015508;28;45551;-68
2022/07/08 02:32:01;;;;;;;;;3.33;2.33;;;;;18.43;50.24;102622.25;5014987;28;50123;-64
2022/07/08 02:34:26;;;;;;;;;2.00;2.00;;;;;18.40;50.22;102616.75;5015393;28;45375;-65
2022/07/08 02:36:52;;;;;;;;;4.33;3.00;;;;;18.34;50.28;102605.78;5015399;28;45575;-66
2022/07/08 02:39:18;;;;;;;;;2.67;2.67;;;;;18.33;50.31;102621.13;5015343;28;45563;-65
2022/07/08 02:41:43;;;;;;;;;2.00;2.00;;;;;18.29;50.40;102604.75;5018331;28;45395;-63
2022/07/08 02:44:09;;;;;;;;;5.67;4.33;;;;;18.34;50.32;102605.78;5015237;28;45523;-66
2022/07/08 02:46:35;;;;;;;;;5.00;2.33;;;;;18.17;50.37;102573.81;5014954;28;45452;-64
2022/07/08 02:49:01;;;;;;;;;2.00;2.00;;;;;18.35;50.25;102602.22;5015101;28;45455;-64
2022/07/08 02:51:27;;;;;;;;;4.33;4.33;;;;;18.30;50.37;102602.09;5014782;28;45593;-63
2022/07/08 02:53:52;;;;;;;;;2.00;2.00;;;;;18.36;50.29;102606.72;5008661;28;45261;-66
2022/07/08 02:56:18;;;;;;;;;3.33;1.33;;;;;18.19;50.38;102577.47;5015231;28;45583;-67
2022/07/08 02:58:43;;;;;;;;;5.00;2.00;;;;;18.32;50.36;102607.53;5014721;28;45494;-65
2022/07/08 03:01:08;;;;;;;;;4.00;2.33;;;;;17.68;50.64;102508.56;5014565;28;45402;-65
2022/07/08 03:03:34;;;;;;;;;2.00;2.00;;;;;18.11;50.64;102592.59;5014364;28;45365;-65
2022/07/08 03:05:59;;;;;;;;;1.67;1.67;;;;;18.15;50.95;102602.63;5014701;28;45374;-67
2022/07/08 03:08:25;;;;;;;;;2.67;1.67;;;;;17.96;50.94;102576.00;5015432;28;45422;-65
2022/07/08 03:10:50;;;;;;;;;6.00;3.00;;;;;18.10;50.56;102590.78;5014482;28;46152;-68
2022/07/08 03:13:16;;;;;;;;;1.67;1.67;;;;;18.29;50.20;102621.00;5014736;28;45422;-67
2022/07/08 03:15:42;;;;;;;;;2.00;2.00;;;;;18.24;50.50;102621.78;5014379;28;45405;-68
2022/07/08 03:18:07;;;;;;;;;4.33;2.00;;;;;17.82;50.94;102567.50;5014538;28;45590;-68
2022/07/08 03:20:33;;;;;;;;;4.00;2.00;;;;;17.99;50.91;102595.00;5012966;28;49757;-67
2022/07/08 03:22:59;;;;;;;;;4.33;2.00;;;;;18.10;51.05;102616.91;5014528;28;45529;-65
2022/07/08 03:25:25;;;;;;;;;2.00;2.00;;;;;17.93;51.33;102601.16;5014612;28;45379;-65
2022/07/08 03:27:50;;;;;;;;;3.67;2.00;;;;;18.04;51.00;102625.78;5014714;28;45557;-68
2022/07/08 03:30:15;;;;;;;;;3.33;2.00;;;;;18.03;51.42;102642.88;5014108;28;46264;-66
2022/07/08 03:32:41;;;;;;;;;3.00;3.00;;;;;17.86;51.31;102623.47;5014295;28;45386;-66
2022/07/08 03:35:07;;;;;;;;;3.00;1.00;;;;;17.90;51.42;102628.16;5019529;28;45431;-67
2022/07/08 03:37:32;;;;;;;;;4.00;2.00;;;;;17.95;51.60;102644.47;5014703;28;45255;-64
2022/07/08 03:41:19;;;;;;;;;2.00;2.00;;;;;17.89;51.77;102645.25;5014237;28;45826;-65
2022/07/08 03:42:43;;;;;;;;;2.33;2.33;;;;;17.80;51.58;102637.78;5014436;28;45395;-66
2022/07/08 03:45:11;;;;;;;;;3.33;3.33;;;;;17.41;51.90;102570.94;5016892;28;46635;-66
2022/07/08 03:47:36;;;;;;;;;3.67;3.33;;;;;17.73;51.96;102645.66;5014251;28;45467;-64
2022/07/08 03:50:02;;;;;;;;;3.67;2.67;;;;;17.43;52.51;102607.00;5013718;28;45364;-65
2022/07/08 03:52:28;;;;;;;;;10.00;5.00;;;;;17.71;52.43;102651.03;5013896;28;45463;-66
2022/07/08 03:54:53;;;;;;;;;8.00;2.33;;;;;17.72;52.32;102650.16;5013847;28;45479;-66
2022/07/08 03:57:19;;;;;;;;;5.33;2.00;;;;;17.76;52.10;102643.06;5014144;28;45378;-66
2022/07/08 03:59:44;;;;;;;;;5.00;5.00;;;;;17.75;52.29;102638.50;5013957;28;45495;-67
2022/07/08 04:02:09;;;;;;;;;5.00;5.00;;;;;17.82;51.83;102654.03;5014342;28;45514;-64
2022/07/08 04:04:35;;;;;;;;;2.67;2.67;;;;;17.86;51.47;102651.44;5013519;28;45453;-68
2022/07/08 04:07:00;;;;;;;;;4.00;4.00;;;;;17.69;51.87;102636.56;5014050;28;45434;-65
2022/07/08 04:09:25;;;;;;;;;4.00;4.00;;;;;17.71;51.83;102634.81;5013963;28;46043;-66
2022/07/08 04:11:51;;;;;;;;;3.00;3.00;;;;;17.89;51.39;102661.47;5013756;28;45521;-67
2022/07/08 04:14:16;;;;;;;;;5.00;3.67;;;;;17.72;51.54;102633.00;5013938;28;45312;-64
2022/07/08 04:16:41;;;;;;;;;2.00;2.00;;;;;17.87;51.58;102663.22;5014271;28;45636;-65
2022/07/08 04:19:07;;;;;;;;;2.33;2.00;;;;;17.83;51.69;102658.56;5013677;28;45613;-68
2022/07/08 04:21:32;;;;;;;;;6.00;2.00;;;;;17.79;51.56;102654.84;5013627;28;45478;-65
2022/07/08 04:23:59;;;;;;;;;4.00;3.33;;;;;17.82;51.89;102659.44;5013777;28;45514;-66
2022/07/08 04:26:31;;;;;;;;;5.00;1.00;;;;;17.88;51.38;102656.91;5013702;28;45290;-63
2022/07/08 04:28:56;;;;;;;;;4.33;3.00;;;;;17.73;51.56;102630.34;5013400;28;46391;-70
2022/07/08 04:31:21;;;;;;;;;3.00;2.67;;;;;17.89;51.37;102663.25;5013338;28;45518;-65
2022/07/08 04:33:47;;;;;;;;;3.00;2.00;;;;;17.80;51.66;102661.16;5013794;28;45446;-63
2022/07/08 04:36:12;;;;;;;;;4.00;2.00;;;;;17.82;51.70;102667.56;5013693;28;44744;-64
2022/07/08 04:38:38;;;;;;;;;2.00;2.00;;;;;17.81;51.83;102671.13;5013036;28;45506;-68
2022/07/08 04:41:03;;;;;;;;;3.67;2.00;;;;;17.77;51.88;102662.03;5013047;28;45540;-67
2022/07/08 04:43:29;;;;;;;;;3.00;3.00;;;;;17.60;51.73;102641.69;5013132;28;45645;-68
2022/07/08 04:45:54;;;;;;;;;6.00;2.00;;;;;17.68;51.94;102672.56;5013601;28;45531;-67
2022/07/08 04:48:19;;;;;;;;;3.00;3.00;;;;;17.64;52.00;102673.38;5013140;28;45995;-65
2022/07/08 04:50:45;;;;;;;;;4.67;2.00;;;;;17.66;52.26;102682.44;5013532;28;45485;-67
2022/07/08 04:53:10;;;;;;;;;4.00;3.00;;;;;17.50;52.32;102640.53;5013198;28;45415;-65
2022/07/08 04:55:35;;;;;;;;;4.00;2.00;;;;;17.73;52.08;102670.00;5012825;28;45489;-67
2022/07/08 04:58:02;;;;;;;;;3.00;3.00;;;;;17.68;51.80;102681.56;5012695;28;50659;-67
2022/07/08 05:00:29;;;;;;;;;7.00;4.00;;;;;17.61;51.82;102681.38;5012877;28;45406;-66
2022/07/08 05:02:54;;;;;;;;;7.67;3.67;;;;;17.54;52.46;102672.19;5006834;28;45463;-68
2022/07/08 05:05:21;;;;;;;;;4.00;3.00;;;;;17.58;52.04;102679.50;5013071;28;45482;-68
2022/07/08 05:07:49;;;;;;;;;4.00;2.00;;;;;17.58;52.45;102690.31;5012567;28;47082;-68
2022/07/08 05:10:19;;;;;;;;;5.67;4.00;;;;;17.60;52.56;102690.34;5012398;28;45637;-67
2022/07/08 05:12:45;;;;;;;;;4.67;4.67;;;;;17.56;52.40;102694.75;5006009;28;45382;-65
2022/07/08 05:15:11;;;;;;;;;7.00;4.00;;;;;17.62;52.21;102699.41;5013050;28;45509;-66
2022/07/08 05:17:37;;;;;;;;;5.33;5.00;;;;;17.24;52.10;102632.63;5016066;28;45708;-67
2022/07/08 05:20:04;;;;;;;;;4.33;4.33;;;;;17.68;52.26;102708.63;5016286;28;45458;-66
2022/07/08 05:22:29;;;;;;;;;10.33;5.33;;;;;17.49;52.04;102663.03;5016141;28;45599;-64
2022/07/08 05:24:54;;;;;;;;;12.75;10.75;;;;;17.69;51.85;102690.63;5016365;28;45288;-68
2022/07/08 05:27:20;;;;;;;;;7.00;3.67;;;;;17.69;51.71;102678.00;5016038;28;46053;-65
2022/07/08 05:29:46;;;;;;;;;11.33;5.00;;;;;17.86;51.85;102702.81;5015992;28;45536;-65
2022/07/08 05:32:11;;;;;;;;;6.33;3.67;;;;;17.71;51.56;102672.66;5016209;28;45435;-67
2022/07/08 05:34:38;;;;;;;;;3.67;3.67;;;;;17.33;51.74;102594.13;5016402;28;45309;-63
2022/07/08 05:37:03;;;;;;;;;6.00;6.00;;;;;17.90;51.58;102695.75;5016307;28;45347;-66
2022/07/08 05:39:29;;;;;;;;;4.67;4.67;;;;;17.93;51.67;102701.22;5015933;28;45400;-67
2022/07/08 05:41:54;;;;;;;;;3.67;3.67;;;;;17.92;51.44;102699.41;5016104;28;45646;-64
2022/07/08 05:44:20;;;;;;;;;7.67;4.33;;;;;17.89;51.05;102699.31;5014770;28;45483;-66
2022/07/08 05:46:45;;;;;;;;;3.00;2.00;;;;;17.91;51.21;102708.38;5015498;28;47153;-70
2022/07/08 05:49:11;;;;;;;;;6.33;4.67;;;;;17.92;51.23;102702.13;5015733;28;45458;-64
2022/07/08 05:51:36;;;;;;;;;3.67;3.33;;;;;17.90;51.74;102701.16;5015765;28;45505;-69
2022/07/08 05:54:01;;;;;;;;;2.67;2.67;;;;;17.86;51.09;102691.09;5016155;28;45482;-65
2022/07/08 05:56:27;;;;;;;;;5.67;3.33;;;;;18.02;51.23;102706.00;5015522;28;46115;-64
2022/07/08 05:58:52;;;;;;;;;10.00;8.33;;;;;18.09;50.78;102701.66;5015794;28;45721;-69
2022/07/08 06:01:18;;;;;;;;;9.33;5.67;;;;;18.15;50.69;102708.13;5015902;28;45599;-63
2022/07/08 06:03:43;;;;;;;;;16.25;11.00;;;;;18.14;50.20;102699.97;5015548;28;45606;-70
2022/07/08 06:06:09;;;;;;;;;5.00;3.00;;;;;18.11;50.62;102699.91;5015738;28;46258;-67
2022/07/08 06:08:34;;;;;;;;;5.33;4.00;;;;;18.16;50.41;102698.22;5015130;28;45430;-66
2022/07/08 06:11:01;;;;;;;;;7.00;4.67;;;;;18.20;50.12;102701.06;5015589;28;45535;-64
2022/07/08 06:13:27;;;;;;;;;4.67;4.00;;;;;18.20;50.22;102706.47;5017335;28;45427;-65
2022/07/08 06:15:52;;;;;;;;;3.00;3.00;;;;;18.18;50.27;102708.22;5015007;28;45634;-65
2022/07/08 06:18:18;;;;;;;;;3.67;2.67;;;;;18.24;50.30;102712.88;5014844;28;45457;-66
2022/07/08 06:20:43;;;;;;;;;5.00;4.00;;;;;18.25;50.18;102709.31;5014441;28;46002;-66
2022/07/08 06:23:08;;;;;;;;;3.67;3.33;;;;;18.33;50.07;102707.72;5015337;28;45336;-63
2022/07/08 06:25:35;;;;;;;;;8.33;3.33;;;;;18.37;49.53;102697.88;5014971;28;46240;-63
2022/07/08 06:28:00;;;;;;;;;4.33;4.00;;;;;18.21;49.88;102674.91;5014575;28;45462;-67
2022/07/08 06:30:26;;;;;;;;;8.00;5.33;;;;;18.47;49.93;102710.75;5015254;28;45407;-69
2022/07/08 06:32:51;;;;;;;;;18.50;16.50;;;;;18.40;49.48;102689.84;5015126;28;45363;-64
2022/07/08 06:35:16;;;;;;;;;6.33;6.00;;;;;18.60;49.56;102717.41;5014790;28;46544;-65
2022/07/08 06:37:42;;;;;;;;;9.00;4.67;;;;;18.63;49.54;102717.47;5014761;28;45547;-68
2022/07/08 06:40:08;;;;;;;;;24.00;20.25;;;;;18.69;49.27;102714.00;5014523;28;45297;-67
2022/07/08 06:42:33;;;;;;;;;10.00;8.67;;;;;18.69;49.51;102709.50;5014783;28;45363;-62
2022/07/08 06:44:59;;;;;;;;;8.00;6.00;;;;;18.81;49.02;102719.72;5014166;28;46316;-64
2022/07/08 06:47:25;;;;;;;;;4.00;4.00;;;;;18.87;49.10;102724.38;5014172;28;45470;-65
2022/07/08 06:49:52;;;;;;;;;7.00;5.00;;;;;18.90;48.86;102728.06;5014252;28;45291;-67
2022/07/08 06:52:18;;;;;;;;;4.00;4.00;;;;;18.61;48.41;102656.97;5014705;28;45501;-65
2022/07/08 06:54:43;;;;;;;;;3.00;3.00;;;;;18.98;48.42;102711.09;5013936;28;45509;-66
2022/07/08 06:57:08;;;;;;;;;7.33;4.00;;;;;19.08;48.60;102707.72;5014295;28;45640;-68
2022/07/08 06:59:35;;;;;;;;;4.67;4.67;;;;;19.19;48.29;102703.47;5014111;28;45659;-65
2022/07/08 07:02:01;;;;;;;;;11.00;3.67;;;;;19.08;47.93;102677.91;5012906;28;45818;-67
2022/07/08 07:04:27;;;;;;;;;6.67;4.00;;;;;19.31;48.01;102719.97;5013666;28;46445;-68
2022/07/08 07:06:52;;;;;;;;;7.67;6.67;;;;;19.21;47.63;102708.91;5013462;28;45502;-68
2022/07/08 07:09:17;;;;;;;;;5.33;4.33;;;;;19.34;47.32;102711.91;5014336;28;45624;-69
2022/07/08 07:11:43;;;;;;;;;5.67;3.33;;;;;19.07;47.31;102654.41;5014523;28;45387;-67
2022/07/08 07:14:08;;;;;;;;;5.67;5.00;;;;;19.47;47.39;102714.91;5014031;28;45723;-70
2022/07/08 07:16:34;;;;;;;;;13.00;8.33;;;;;19.61;47.68;102718.78;5013924;28;45454;-68
2022/07/08 07:18:59;;;;;;;;;15.00;8.00;;;;;19.59;46.99;102700.69;5013844;28;45509;-66
2022/07/08 07:21:24;;;;;;;;;4.33;4.33;;;;;19.80;46.82;102717.41;5014280;28;45532;-66
2022/07/08 07:23:50;;;;;;;;;5.67;5.00;;;;;19.83;46.78;102728.34;5013907;28;46420;-71
2022/07/08 07:26:15;;;;;;;;;5.00;5.00;;;;;19.24;46.43;102592.47;5013569;28;45410;-67
2022/07/08 07:28:41;;;;;;;;;7.00;6.00;;;;;19.32;46.03;102624.25;5013984;28;45446;-68
2022/07/08 07:31:07;;;;;;;;;48.00;35.75;;;;;19.87;46.57;102713.03;5014315;28;45387;-69
2022/07/08 07:33:32;;;;;;;;;6.67;6.67;;;;;19.93;46.42;102709.50;5013915;28;46381;-65
2022/07/08 07:35:58;;;;;;;;;11.00;9.00;;;;;20.01;46.16;102721.41;5013976;28;45434;-67
2022/07/08 07:38:23;;;;;;;;;9.33;6.00;;;;;20.06;45.62;102715.22;5012725;28;45493;-66
2022/07/08 07:40:48;;;;;;;;;10.33;8.67;;;;;20.08;45.73;102715.22;5013987;28;45537;-66
2022/07/08 07:43:14;;;;;;;;;9.00;7.00;;;;;20.12;45.50;102700.81;5013251;28;46750;-66
2022/07/08 07:45:39;;;;;;;;;15.00;10.33;;;;;20.35;45.26;102725.66;5013389;28;45434;-66
2022/07/08 07:48:05;;;;;;;;;14.67;8.33;;;;;20.48;44.65;102732.22;5013641;28;45353;-67
2022/07/08 07:50:30;;;;;;;;;8.33;5.67;;;;;20.62;44.02;102724.28;5014467;28;45292;-63
2022/07/08 07:52:56;;;;;;;;;10.33;5.00;;;;;20.76;43.58;102709.16;5013472;28;46018;-66
2022/07/08 07:55:21;;;;;;;;;10.33;7.33;;;;;21.07;43.33;102722.28;5013539;28;45424;-67
2022/07/08 07:57:49;;;;;;;;;8.00;5.33;;;;;21.17;42.63;102721.56;5012870;28;45474;-67
2022/07/08 08:00:15;;;;;;;;;18.00;17.00;;;;;21.11;42.55;102694.28;5013771;28;45522;-71
2022/07/08 08:02:41;;;;;;;;;12.00;10.33;;;;;21.26;42.80;102715.31;5012598;28;45567;-68
2022/07/08 08:05:08;;;;;;;;;7.67;7.00;;;;;21.21;42.51;102708.91;5013139;28;45475;-67
2022/07/08 08:07:33;;;;;;;;;16.00;13.50;;;;;21.33;42.66;102720.88;5013634;28;45484;-65
2022/07/08 08:10:00;;;;;;;;;18.67;13.00;;;;;21.32;42.71;102718.13;5013670;28;45259;-66
2022/07/08 08:12:25;;;;;;;;;9.00;7.00;;;;;21.28;42.65;102702.66;5013186;28;46077;-67
2022/07/08 08:14:50;;;;;;;;;8.00;6.00;;;;;21.23;42.91;102689.00;5013093;28;45378;-67
2022/07/08 08:17:15;;;;;;;;;7.33;6.67;;;;;21.46;42.40;102715.56;5012663;28;48500;-65
2022/07/08 08:19:41;;;;;;;;;8.00;6.67;;;;;21.48;42.31;102708.38;5013028;28;46263;-62
2022/07/08 08:22:06;;;;;;;;;10.00;8.00;;;;;21.44;42.48;102679.28;5012720;28;50507;-68
2022/07/08 08:24:32;;;;;;;;;11.00;7.33;;;;;21.61;42.40;102695.84;5011723;28;47436;-66
2022/07/08 08:26:57;;;;;;;;;5.67;5.67;;;;;21.76;42.32;102703.25;5013341;28;45438;-65
2022/07/08 08:29:22;;;;;;;;;7.67;5.00;;;;;21.66;42.28;102681.41;5013352;28;45518;-69
2022/07/08 08:31:48;;;;;;;;;7.33;5.67;;;;;21.75;41.47;102680.59;5013464;28;45528;-67
2022/07/08 08:34:13;;;;;;;;;7.00;7.00;;;;;21.84;41.10;102697.00;5027976;28;45570;-64
2022/07/08 08:36:38;;;;;;;;;8.33;5.33;;;;;21.92;41.30;102709.81;5013211;28;45455;-65
2022/07/08 08:39:04;;;;;;;;;7.00;6.00;;;;;21.90;41.13;102702.53;5013761;28;45923;-70
2022/07/08 08:41:29;;;;;;;;;8.67;6.00;;;;;21.90;40.79;102680.75;5012728;28;46128;-69
2022/07/08 08:43:55;;;;;;;;;5.67;5.67;;;;;22.08;40.40;102711.78;5012521;28;45432;-66
2022/07/08 08:46:24;;;;;;;;;17.25;14.50;;;;;22.14;40.32;102687.34;5013081;28;45775;-64
2022/07/08 08:48:55;;;;;;;;;12.00;12.00;;;;;22.20;40.43;102695.53;5012958;28;45566;-66
2022/07/08 08:51:21;;;;;;;;;11.33;7.00;;;;;22.23;40.41;102695.56;5016481;28;46164;-64
2022/07/08 08:53:47;;;;;;;;;14.67;12.33;;;;;22.29;40.00;102689.34;5015892;28;45470;-67
2022/07/08 08:56:15;;;;;;;;;11.67;9.00;;;;;22.43;39.76;102694.88;5015739;28;45623;-67
2022/07/08 08:58:46;;;;;;;;;9.00;7.33;;;;;22.36;39.10;102663.06;5015432;28;45445;-67
2022/07/08 09:01:12;;;;;;;;;13.33;11.00;;;;;22.51;39.34;102687.69;5019612;28;46039;-66
2022/07/08 09:03:37;;;;;;;;;9.67;9.33;;;;;22.58;39.22;102686.81;5015366;28;45538;-66
2022/07/08 09:06:04;;;;;;;;;9.67;7.33;;;;;22.64;39.13;102686.88;5016447;28;45730;-66
2022/07/08 09:08:30;;;;;;;;;7.33;7.33;;;;;22.74;38.73;102673.31;5016478;28;45525;-62
2022/07/08 09:10:55;;;;;;;;;5.67;5.67;;;;;22.76;38.56;102668.78;5015770;28;45447;-66
2022/07/08 09:13:25;;;;;;;;;11.00;9.00;;;;;22.84;38.51;102657.94;5015993;28;45522;-64
2022/07/08 09:15:54;;;;;;;;;9.00;5.00;;;;;22.90;38.23;102658.88;5016069;28;45479;-65
2022/07/08 09:18:21;;;;;;;;;15.33;13.00;;;;;22.96;38.13;102664.34;5016334;28;45842;-64
2022/07/08 09:20:51;;;;;;;;;7.33;6.00;;;;;22.97;37.10;102660.72;5015565;28;46309;-68
2022/07/08 09:23:30;;;;;;;;;12.33;8.33;;;;;22.98;37.12;102646.22;5017247;28;45387;-64
2022/07/08 09:25:58;;;;;;;;;12.33;11.33;;;;;23.17;36.81;102660.84;5014422;28;45439;-67
2022/07/08 09:28:41;;;;;;;;;6.33;6.33;;;;;23.20;36.69;102651.78;5016922;28;45369;-68
2022/07/08 09:31:08;;;;;;;;;9.33;7.33;;;;;23.31;36.83;102658.22;5016879;28;45481;-63
2022/07/08 09:33:35;;;;;;;;;7.33;6.67;;;;;23.31;36.30;102657.28;5016636;28;45374;-66
2022/07/08 09:36:03;;;;;;;;;12.67;12.33;;;;;23.25;36.60;102644.53;5016286;28;45340;-64
2022/07/08 09:38:30;;;;;;;;;9.67;8.67;;;;;23.42;36.65;102644.59;5015591;28;45567;-64
2022/07/08 09:41:01;;;;;;;;;10.33;6.33;;;;;23.48;36.56;102649.16;5015408;28;46635;-65
2022/07/08 09:43:26;;;;;;;;;9.00;6.00;;;;;23.47;36.21;102644.59;5017161;28;45503;-65
2022/07/08 09:45:52;;;;;;;;;14.67;8.67;;;;;23.40;36.59;102643.69;5015190;28;45359;-66
2022/07/08 09:48:19;;;;;;;;;8.67;8.67;;;;;23.36;36.96;102640.03;5015252;28;45495;-64
2022/07/08 09:50:47;;;;;;;;;13.67;9.33;;;;;23.51;36.12;102649.16;5014634;28;46326;-64
2022/07/08 09:53:14;;;;;;;;;11.33;9.00;;;;;23.46;35.32;102623.69;5014491;28;45455;-70
2022/07/08 09:55:46;;;;;;;;;8.00;4.00;;;;;23.61;34.96;102634.66;5014952;28;45403;-67
2022/07/08 09:58:13;;;;;;;;;7.33;5.33;;;;;23.69;34.76;102645.56;5015263;28;45512;-64
2022/07/08 10:00:40;;;;;;;;;9.00;8.33;;;;;23.78;34.70;102656.50;5014373;28;46066;-67
2022/07/08 10:03:05;;;;;;;;;5.00;5.00;;;;;23.84;34.71;102642.91;5014706;28;45563;-63
2022/07/08 10:05:31;;;;;;;;;3.67;3.67;;;;;23.80;34.61;102634.69;5015057;28;45367;-64
2022/07/08 10:07:57;;;;;;;;;7.00;7.00;;;;;23.82;34.64;102644.72;5015279;28;45382;-65
2022/07/08 10:10:24;;;;;;;;;2.00;1.33;;;;;23.71;35.17;102621.94;5014442;28;45413;-64
2022/07/08 10:12:52;;;;;;;;;8.00;6.00;;;;;23.82;35.29;102641.97;5014624;28;45265;-64
2022/07/08 10:15:19;;;;;;;;;7.00;6.00;;;;;23.60;34.85;102600.06;5014507;28;45404;-65
2022/07/08 10:17:46;;;;;;;;;4.00;4.00;;;;;23.81;33.95;102625.56;5014960;28;45328;-63
2022/07/08 10:20:15;;;;;;;;;4.00;4.00;;;;;23.85;33.27;102632.91;5014779;28;46391;-66
2022/07/08 10:22:43;;;;;;;;;3.67;3.00;;;;;23.89;33.83;102640.16;5014466;28;45436;-63
2022/07/08 10:25:09;;;;;;;;;9.00;5.00;;;;;23.78;33.80;102606.47;5014520;28;45560;-65
2022/07/08 10:27:35;;;;;;;;;7.00;7.00;;;;;23.92;34.68;102619.25;5014976;28;45296;-68
2022/07/08 10:30:15;;;;;;;;;7.00;5.00;;;;;23.96;34.40;102628.38;5014356;28;45722;-64
2022/07/08 10:32:40;;;;;;;;;4.67;4.67;;;;;24.02;33.64;102636.56;5014043;28;45491;-64
2022/07/08 10:35:09;;;;;;;;;11.00;9.00;;;;;23.94;33.92;102616.53;5014445;28;45576;-68
2022/07/08 10:37:48;;;;;;;;;8.67;7.33;;;;;24.10;33.70;102636.53;5014529;28;45456;-67
2022/07/08 10:40:46;;;;;;;;;11.00;7.33;;;;;24.22;34.33;102643.81;5014206;28;45682;-64
2022/07/08 10:43:21;;;;;;;;;15.67;13.00;;;;;24.26;34.09;102634.72;5013280;28;45491;-64
2022/07/08 10:46:12;;;;;;;;;7.00;6.67;;;;;24.27;34.26;102629.28;5013229;28;45398;-65
2022/07/08 10:48:41;;;;;;;;;11.00;7.67;;;;;24.35;34.42;102637.44;5028868;28;45370;-66
2022/07/08 10:51:29;;;;;;;;;8.00;6.00;;;;;24.41;34.07;102634.72;5013578;28;46289;-65
2022/07/08 10:53:56;;;;;;;;;35.50;33.00;;;;;24.42;33.68;102639.28;5008081;28;45317;-66
2022/07/08 10:56:50;;;;;;;;;20.25;18.50;;;;;24.41;33.09;102628.34;5013636;28;45252;-66
2022/07/08 10:59:26;;;;;;;;;18.33;14.33;;;;;24.38;32.97;102626.50;5013946;28;45375;-64
2022/07/08 11:01:54;;;;;;;;;6.67;5.00;;;;;24.49;32.98;102631.97;5013643;28;45458;-67
2022/07/08 11:04:26;;;;;;;;;7.00;5.67;;;;;24.36;32.50;102611.94;5013732;28;45395;-70
2022/07/08 11:06:54;;;;;;;;;8.33;6.33;;;;;24.51;32.49;102621.03;5013671;28;45292;-67
2022/07/08 11:09:22;;;;;;;;;6.00;4.67;;;;;24.59;32.48;102630.16;5014277;28;45473;-66
2022/07/08 11:11:49;;;;;;;;;4.00;3.00;;;;;24.54;32.20;102613.75;5013293;28;45644;-67
2022/07/08 11:14:14;;;;;;;;;6.00;6.00;;;;;24.53;32.30;102611.91;5012703;28;45457;-68
2022/07/08 11:16:40;;;;;;;;;8.00;7.00;;;;;24.38;32.49;102588.25;5013498;28;45526;-66
2022/07/08 11:19:06;;;;;;;;;7.33;6.00;;;;;24.21;32.23;102562.81;5013820;28;45584;-66
2022/07/08 11:21:32;;;;;;;;;6.00;4.00;;;;;24.45;31.67;102602.81;5013130;28;47153;-67